createdAt,value
2023-02-22T00:00:18.615Z,6.07
2023-02-22T00:02:47.600Z,6.19
2023-02-22T00:05:19.453Z,6.20
2023-02-22T00:07:46.937Z,6.17
2023-02-22T00:10:19.795Z,6.39
2023-02-22T00:12:49.941Z,6.40
2023-02-22T00:15:17.468Z,6.25
2023-02-22T00:17:44.203Z,6.15
2023-02-22T00:20:14.586Z,6.26
2023-02-22T00:22:42.062Z,6.30
2023-02-22T00:25:08.472Z,6.28
2023-02-22T00:27:34.542Z,6.42
2023-02-22T00:30:00.405Z,6.31
2023-02-22T00:32:26.287Z,6.38
2023-02-22T00:34:53.680Z,6.28
2023-02-22T00:37:20.600Z,6.30
2023-02-22T00:39:48.189Z,6.26
2023-02-22T00:42:15.246Z,6.15
2023-02-22T00:44:41.259Z,6.22
2023-02-22T00:47:07.935Z,6.15
2023-02-22T00:49:34.354Z,6.18
2023-02-22T00:52:00.470Z,6.19
2023-02-22T00:54:26.611Z,6.21
2023-02-22T00:56:52.489Z,6.23
2023-02-22T00:59:18.348Z,6.26
2023-02-22T01:01:44.265Z,6.29
2023-02-22T01:04:10.146Z,6.33
2023-02-22T01:06:36.143Z,6.38
2023-02-22T01:09:03.075Z,6.39
2023-02-22T01:11:29.893Z,6.48
2023-02-22T01:13:57.080Z,6.44
2023-02-22T01:16:23.243Z,6.28
2023-02-22T01:18:49.053Z,6.15
2023-02-22T01:21:15.297Z,6.18
2023-02-22T01:23:44.408Z,6.18
2023-02-22T01:26:10.344Z,6.15
2023-02-22T01:28:37.269Z,6.06
2023-02-22T01:31:03.766Z,6.18
2023-02-22T01:33:30.768Z,6.10
2023-02-22T01:35:57.240Z,6.07
2023-02-22T01:38:23.041Z,6.24
2023-02-22T01:40:50.512Z,6.34
2023-02-22T01:43:27.369Z,6.43
2023-02-22T01:45:54.880Z,6.48
2023-02-22T01:48:50.228Z,6.39
2023-02-22T01:51:21.483Z,6.42
2023-02-22T01:54:07.658Z,6.46
2023-02-22T01:56:37.826Z,6.38
2023-02-22T01:59:07.600Z,6.40
2023-02-22T02:04:24.632Z,6.30
2023-02-22T02:06:53.726Z,6.26
2023-02-22T02:09:42.772Z,6.15
2023-02-22T02:12:11.598Z,6.10
2023-02-22T02:14:40.976Z,6.17
2023-02-22T02:17:09.932Z,6.23
2023-02-22T02:19:47.512Z,6.17
2023-02-22T02:23:00.153Z,6.16
2023-02-22T02:25:44.723Z,6.03
2023-02-22T02:28:33.365Z,6.12
2023-02-22T02:31:25.760Z,6.03
2023-02-22T02:34:10.352Z,6.12
2023-02-22T02:36:46.632Z,6.17
2023-02-22T02:39:37.288Z,6.09
2023-02-22T02:42:07.245Z,5.97
2023-02-22T02:44:40.691Z,6.04
2023-02-22T02:47:29.280Z,6.10
2023-02-22T02:50:13.973Z,6.26
2023-02-22T02:52:41.441Z,6.25
2023-02-22T02:55:10.631Z,6.20
2023-02-22T02:57:38.176Z,6.22
2023-02-22T03:00:24.577Z,6.17
2023-02-22T03:03:27.483Z,6.15
2023-02-22T03:05:56.067Z,6.17
2023-02-22T03:08:31.790Z,6.09
2023-02-22T03:11:19.613Z,6.06
2023-02-22T03:14:17.857Z,6.01
2023-02-22T03:16:57.640Z,6.03
2023-02-22T03:19:48.232Z,6.08
2023-02-22T03:22:24.091Z,6.04
2023-02-22T03:25:06.790Z,5.99
2023-02-22T03:27:59.268Z,6.08
2023-02-22T03:30:33.169Z,6.08
2023-02-22T03:33:08.300Z,5.92
2023-02-22T03:35:42.765Z,6.00
2023-02-22T03:38:12.618Z,5.95
2023-02-22T03:40:45.273Z,6.07
2023-02-22T03:43:17.787Z,5.98
2023-02-22T03:45:46.718Z,5.94
2023-02-22T03:48:35.599Z,5.88
2023-02-22T03:51:03.875Z,5.85
2023-02-22T03:53:32.153Z,5.78
2023-02-22T03:55:59.655Z,5.71
2023-02-22T03:58:30.428Z,5.69
2023-02-22T04:00:56.411Z,5.70
2023-02-22T04:03:22.644Z,5.80
2023-02-22T04:05:49.368Z,5.68
2023-02-22T04:08:16.438Z,5.59
2023-02-22T04:10:42.428Z,5.49
2023-02-22T04:13:09.500Z,5.44
2023-02-22T04:15:35.413Z,5.49
2023-02-22T04:18:01.239Z,5.45
2023-02-22T04:20:27.033Z,5.41
2023-02-22T04:22:54.585Z,5.54
2023-02-22T04:25:22.462Z,5.50
2023-02-22T04:27:48.630Z,5.41
2023-02-22T04:30:18.030Z,5.42
2023-02-22T04:32:44.469Z,5.36
2023-02-22T04:35:10.359Z,5.38
2023-02-22T04:37:36.397Z,5.38
2023-02-22T04:40:07.018Z,5.27
2023-02-22T04:42:38.022Z,5.34
2023-02-22T04:45:07.295Z,5.43
2023-02-22T04:47:33.963Z,5.39
2023-02-22T04:49:59.812Z,5.39
2023-02-22T04:52:27.063Z,5.47
2023-02-22T04:54:53.632Z,5.41
2023-02-22T04:57:19.559Z,5.40
2023-02-22T04:59:45.350Z,5.45
2023-02-22T05:02:11.355Z,5.51
2023-02-22T05:04:38.423Z,5.44
2023-02-22T05:07:04.508Z,5.49
2023-02-22T05:09:30.275Z,5.48
2023-02-22T05:11:56.138Z,5.66
2023-02-22T05:14:22.294Z,5.62
2023-02-22T05:16:49.152Z,5.65
2023-02-22T05:19:15.019Z,5.57
2023-02-22T05:21:40.931Z,5.59
2023-02-22T05:24:06.943Z,5.62
2023-02-22T05:26:33.052Z,5.62
2023-02-22T05:28:58.803Z,5.68
2023-02-22T05:31:24.701Z,5.63
2023-02-22T05:33:50.584Z,5.80
2023-02-22T05:36:16.422Z,5.83
2023-02-22T05:38:43.986Z,5.73
2023-02-22T05:41:11.501Z,5.85
2023-02-22T05:43:38.377Z,5.98
2023-02-22T05:46:04.325Z,6.02
2023-02-22T05:48:30.518Z,6.17
2023-02-22T05:50:57.473Z,6.14
2023-02-22T05:53:23.583Z,6.17
2023-02-22T05:55:50.677Z,6.27
2023-02-22T05:58:16.780Z,6.26
2023-02-22T06:00:42.661Z,6.29
2023-02-22T06:03:10.318Z,6.45
2023-02-22T06:05:36.714Z,6.48
2023-02-22T06:08:03.552Z,6.51
2023-02-22T06:10:29.798Z,6.66
2023-02-22T06:12:56.156Z,6.58
2023-02-22T06:15:23.607Z,6.61
2023-02-22T06:17:49.994Z,6.58
2023-02-22T06:20:19.098Z,6.50
2023-02-22T06:22:51.949Z,6.62
2023-02-22T06:25:24.278Z,6.72
2023-02-22T06:27:50.094Z,6.70
2023-02-22T06:30:18.899Z,6.65
2023-02-22T06:32:44.679Z,6.77
2023-02-22T06:35:10.517Z,6.71
2023-02-22T06:37:39.470Z,6.68
2023-02-22T06:40:06.014Z,6.67
2023-02-22T06:42:32.132Z,6.61
2023-02-22T06:44:57.978Z,6.53
2023-02-22T06:47:24.138Z,6.61
2023-02-22T06:49:53.996Z,6.53
2023-02-22T06:52:20.303Z,6.56
2023-02-22T06:54:46.150Z,6.53
2023-02-22T06:57:12.021Z,6.55
2023-02-22T06:59:37.847Z,6.60
2023-02-22T07:02:03.806Z,6.53
2023-02-22T07:04:29.841Z,6.61
2023-02-22T07:06:55.715Z,6.56
2023-02-22T07:09:21.503Z,6.71
2023-02-22T07:11:47.325Z,6.74
2023-02-22T07:14:15.362Z,6.70
2023-02-22T07:16:41.139Z,6.68
2023-02-22T07:19:06.985Z,6.75
2023-02-22T07:21:32.988Z,6.72
2023-02-22T07:23:58.829Z,6.69
2023-02-22T07:26:25.974Z,6.82
2023-02-22T07:28:51.891Z,6.82
2023-02-22T07:31:18.553Z,6.74
2023-02-22T07:33:48.159Z,6.78
2023-02-22T07:36:17.010Z,6.95
2023-02-22T07:38:45.523Z,6.99
2023-02-22T07:41:12.577Z,6.93
2023-02-22T07:43:38.458Z,7.00
2023-02-22T07:46:04.431Z,6.97
2023-02-22T07:48:30.919Z,7.05
2023-02-22T07:50:58.063Z,7.12
2023-02-22T07:53:29.577Z,7.15
2023-02-22T07:55:59.672Z,7.21
2023-02-22T07:58:28.424Z,7.26
2023-02-22T08:00:54.596Z,7.34
2023-02-22T08:03:23.718Z,7.40
2023-02-22T08:05:52.539Z,7.47
2023-02-22T08:08:19.914Z,7.61
2023-02-22T08:10:46.608Z,7.56
2023-02-22T08:13:12.555Z,7.71
2023-02-22T08:15:40.215Z,7.76
2023-02-22T08:18:12.924Z,7.81
2023-02-22T08:20:41.118Z,7.76
2023-02-22T08:23:08.216Z,7.74
2023-02-22T08:25:34.746Z,7.91
2023-02-22T08:28:22.727Z,7.94
2023-02-22T08:30:49.146Z,7.81
2023-02-22T08:33:18.550Z,7.93
2023-02-22T08:35:50.869Z,8.10
2023-02-22T08:38:18.917Z,8.01
2023-02-22T08:40:44.861Z,8.24
2023-02-22T08:43:12.697Z,8.30
2023-02-22T08:45:39.025Z,8.36
2023-02-22T08:48:05.056Z,8.35
2023-02-22T08:50:35.449Z,8.51
2023-02-22T08:53:03.672Z,8.51
2023-02-22T08:55:35.100Z,8.46
2023-02-22T08:58:02.576Z,8.52
2023-02-22T09:00:32.180Z,8.75
2023-02-22T09:03:02.841Z,8.79
2023-02-22T09:05:31.209Z,8.86
2023-02-22T09:07:57.517Z,9.01
2023-02-22T09:10:28.568Z,9.14
2023-02-22T09:12:55.209Z,9.26
2023-02-22T09:15:22.445Z,9.20
2023-02-22T09:17:48.385Z,9.17
2023-02-22T09:20:17.172Z,9.21
2023-02-22T09:22:44.981Z,9.41
2023-02-22T09:25:16.827Z,9.59
2023-02-22T09:27:43.676Z,9.55
2023-02-22T09:30:22.846Z,9.43
2023-02-22T09:33:00.447Z,9.54
2023-02-22T09:35:26.550Z,9.73
2023-02-22T09:37:57.512Z,9.86
2023-02-22T09:40:25.130Z,9.86
2023-02-22T09:43:14.455Z,10.06
2023-02-22T09:45:47.508Z,10.26
2023-02-22T09:48:22.005Z,10.32
2023-02-22T09:50:50.910Z,10.41
2023-02-22T09:53:28.845Z,10.49
2023-02-22T09:56:00.553Z,10.59
2023-02-22T09:58:36.052Z,10.81
2023-02-22T10:01:26.230Z,10.96
2023-02-22T10:04:03.533Z,10.99
2023-02-22T10:06:30.695Z,11.35
2023-02-22T10:09:00.551Z,11.60
2023-02-22T10:11:51.628Z,11.97
2023-02-22T10:14:35.173Z,12.56
2023-02-22T10:17:09.778Z,12.92
2023-02-22T10:20:12.675Z,13.98
2023-02-22T10:23:01.558Z,14.06
2023-02-22T10:25:34.237Z,13.87
2023-02-22T10:28:05.708Z,14.22
2023-02-22T10:30:55.315Z,14.16
2023-02-22T10:33:25.905Z,14.31
2023-02-22T10:35:54.548Z,14.85
2023-02-22T10:38:26.067Z,15.00
2023-02-22T10:40:57.369Z,14.64
2023-02-22T10:43:25.000Z,14.61
2023-02-22T10:45:55.163Z,14.90
2023-02-22T10:48:23.444Z,15.22
2023-02-22T10:50:52.653Z,15.08
2023-02-22T10:53:18.544Z,15.37
2023-02-22T10:56:15.443Z,16.16
2023-02-22T10:58:48.455Z,15.24
2023-02-22T11:01:21.788Z,15.13
2023-02-22T11:04:16.304Z,14.88
2023-02-22T11:06:48.546Z,15.75
2023-02-22T11:09:23.030Z,15.21
2023-02-22T11:12:06.487Z,14.39
2023-02-22T11:14:32.596Z,14.03
2023-02-22T11:17:00.814Z,14.79
2023-02-22T11:19:29.041Z,15.26
2023-02-22T11:21:58.639Z,15.82
2023-02-22T11:24:27.408Z,15.91
2023-02-22T11:27:00.587Z,16.70
2023-02-22T11:29:33.026Z,17.35
2023-02-22T11:32:20.783Z,17.88
2023-02-22T11:34:50.830Z,17.85
2023-02-22T11:37:21.878Z,17.71
2023-02-22T11:39:59.150Z,17.10
2023-02-22T11:42:27.509Z,17.46
2023-02-22T11:45:13.832Z,18.08
2023-02-22T11:48:02.557Z,18.85
2023-02-22T11:50:59.339Z,20.44
2023-02-22T11:53:49.981Z,18.67
2023-02-22T11:56:38.074Z,16.75
2023-02-22T11:59:25.734Z,15.52
2023-02-22T12:01:59.197Z,14.54
2023-02-22T12:04:56.179Z,13.52
2023-02-22T12:07:21.928Z,13.13
2023-02-22T12:10:12.635Z,13.49
2023-02-22T12:13:01.391Z,14.90
2023-02-22T12:16:12.174Z,16.59
2023-02-22T12:18:40.614Z,16.53
2023-02-22T12:21:17.478Z,16.29
2023-02-22T12:23:49.936Z,17.01
2023-02-22T12:26:23.935Z,17.32
2023-02-22T12:28:49.679Z,16.72
2023-02-22T12:31:38.108Z,16.54
2023-02-22T12:34:16.460Z,17.04
2023-02-22T12:36:57.786Z,16.86
2023-02-22T12:39:53.119Z,17.10
2023-02-22T12:42:39.796Z,15.50
2023-02-22T12:45:16.988Z,14.71
2023-02-22T12:47:53.068Z,14.93
2023-02-22T12:50:27.824Z,16.18
2023-02-22T12:53:19.353Z,17.29
2023-02-22T12:55:52.172Z,16.55
2023-02-22T12:58:22.387Z,16.07
2023-02-22T13:01:13.323Z,16.18
2023-02-22T13:03:41.505Z,16.16
2023-02-22T13:06:28.568Z,18.83
2023-02-22T13:09:29.421Z,19.63
2023-02-22T13:12:11.468Z,19.40
2023-02-22T13:15:10.310Z,17.86
2023-02-22T13:17:45.254Z,16.76
2023-02-22T13:20:17.764Z,15.60
2023-02-22T13:23:04.198Z,14.44
2023-02-22T13:25:35.673Z,13.87
2023-02-22T13:28:10.586Z,13.61
2023-02-22T13:30:45.007Z,14.10
2023-02-22T13:33:29.525Z,13.53
2023-02-22T13:36:24.361Z,13.57
2023-02-22T13:38:53.147Z,13.75
2023-02-22T13:41:32.300Z,14.10
2023-02-22T13:44:22.532Z,14.70
2023-02-22T13:47:19.138Z,15.71
2023-02-22T13:49:44.918Z,17.53
2023-02-22T13:52:17.266Z,16.44
2023-02-22T13:54:50.687Z,17.49
2023-02-22T13:57:28.401Z,17.12
2023-02-22T14:00:16.118Z,16.85
2023-02-22T14:03:07.341Z,16.87
2023-02-22T14:05:42.134Z,16.36
2023-02-22T14:08:28.194Z,15.97
2023-02-22T14:11:01.488Z,15.86
2023-02-22T14:13:29.457Z,15.76
2023-02-22T14:16:07.105Z,15.19
2023-02-22T14:18:43.180Z,14.67
2023-02-22T14:21:10.583Z,14.13
2023-02-22T14:23:41.449Z,13.89
2023-02-22T14:26:18.611Z,13.56
2023-02-22T14:28:49.883Z,13.33
2023-02-22T14:31:34.583Z,13.16
2023-02-22T14:34:10.667Z,12.89
2023-02-22T14:36:57.179Z,12.84
2023-02-22T14:39:52.640Z,12.78
2023-02-22T14:42:30.725Z,12.58
2023-02-22T14:45:11.786Z,12.27
2023-02-22T14:47:43.047Z,12.40
2023-02-22T14:50:40.176Z,12.18
2023-02-22T14:53:17.556Z,12.29
2023-02-22T14:55:51.961Z,12.18
2023-02-22T14:58:25.039Z,12.05
2023-02-22T15:00:53.202Z,12.20
2023-02-22T15:03:39.239Z,12.28
2023-02-22T15:06:14.105Z,12.30
2023-02-22T15:08:41.409Z,12.02
2023-02-22T15:11:25.876Z,11.71
2023-02-22T15:13:54.193Z,11.84
2023-02-22T15:16:22.676Z,11.74
2023-02-22T15:19:00.285Z,11.87
2023-02-22T15:21:28.035Z,11.54
2023-02-22T15:23:59.391Z,11.60
2023-02-22T15:26:34.424Z,11.40
2023-02-22T15:29:01.674Z,11.36
2023-02-22T15:31:33.706Z,11.35
2023-02-22T15:34:24.084Z,11.21
2023-02-22T15:36:53.836Z,11.13
2023-02-22T15:39:26.194Z,11.17
2023-02-22T15:42:07.198Z,11.40
2023-02-22T15:44:39.511Z,11.27
2023-02-22T15:47:06.585Z,11.18
2023-02-22T15:49:37.013Z,11.03
2023-02-22T15:52:31.212Z,11.06
2023-02-22T15:54:57.072Z,10.89
2023-02-22T15:57:24.824Z,10.94
2023-02-22T15:59:55.127Z,10.95
2023-02-22T16:02:39.736Z,10.95
2023-02-22T16:05:10.982Z,10.91
2023-02-22T16:07:44.743Z,10.86
2023-02-22T16:10:27.590Z,10.69
2023-02-22T16:13:31.423Z,10.51
2023-02-22T16:16:29.022Z,10.40
2023-02-22T16:19:26.212Z,10.54
2023-02-22T16:21:56.078Z,10.51
2023-02-22T16:24:27.806Z,10.41
2023-02-22T16:27:11.923Z,10.35
2023-02-22T16:29:38.151Z,10.40
2023-02-22T16:32:04.228Z,10.38
2023-02-22T16:34:30.246Z,10.33
2023-02-22T16:36:56.397Z,10.23
2023-02-22T16:39:31.064Z,10.08
2023-02-22T16:41:59.533Z,10.18
2023-02-22T16:44:26.240Z,10.02
2023-02-22T16:46:53.450Z,9.95
2023-02-22T16:49:19.912Z,9.93
2023-02-22T16:52:00.727Z,9.92
2023-02-22T16:54:33.543Z,9.82
2023-02-22T16:57:01.627Z,9.95
2023-02-22T16:59:27.745Z,9.73
2023-02-22T17:01:54.949Z,9.78
2023-02-22T17:04:24.096Z,9.58
2023-02-22T17:06:50.026Z,9.64
2023-02-22T17:09:16.104Z,9.62
2023-02-22T17:11:43.145Z,9.53
2023-02-22T17:14:21.749Z,9.66
2023-02-22T17:16:53.543Z,9.48
2023-02-22T17:19:22.935Z,9.40
2023-02-22T17:21:49.578Z,9.33
2023-02-22T17:24:22.275Z,9.34
2023-02-22T17:26:49.020Z,9.44
2023-02-22T17:29:16.983Z,9.35
2023-02-22T17:31:43.039Z,9.36
2023-02-22T17:34:08.882Z,9.41
2023-02-22T17:36:38.075Z,9.32
2023-02-22T17:39:05.189Z,9.31
2023-02-22T17:41:31.400Z,9.29
2023-02-22T17:44:00.059Z,9.30
2023-02-22T17:46:25.990Z,9.38
2023-02-22T17:48:54.746Z,9.32
2023-02-22T17:51:23.670Z,9.23
2023-02-22T17:53:49.583Z,9.27
2023-02-22T17:56:17.977Z,9.17
2023-02-22T17:58:45.630Z,9.13
2023-02-22T18:01:31.142Z,9.14
2023-02-22T18:04:01.659Z,9.26
2023-02-22T18:06:29.502Z,9.25
2023-02-22T18:08:57.055Z,9.28
2023-02-22T18:11:25.562Z,9.12
2023-02-22T18:13:53.501Z,9.07
2023-02-22T18:16:19.760Z,9.00
2023-02-22T18:18:46.952Z,8.94
2023-02-22T18:21:14.792Z,9.08
2023-02-22T18:23:40.783Z,9.13
2023-02-22T18:26:11.722Z,9.06
2023-02-22T18:28:39.064Z,8.95
2023-02-22T18:31:13.734Z,8.95
2023-02-22T18:33:42.493Z,9.14
2023-02-22T18:36:10.719Z,9.04
2023-02-22T18:38:44.121Z,9.00
2023-02-22T18:41:12.242Z,8.99
2023-02-22T18:43:39.036Z,8.97
2023-02-22T18:46:06.261Z,8.98
2023-02-22T18:48:32.458Z,8.96
2023-02-22T18:51:05.169Z,8.93
2023-02-22T18:53:31.911Z,8.91
2023-02-22T18:56:05.779Z,8.87
2023-02-22T18:58:35.006Z,8.99
2023-02-22T19:01:02.629Z,8.95
2023-02-22T19:03:29.655Z,8.95
2023-02-22T19:06:09.700Z,8.97
2023-02-22T19:08:38.743Z,8.96
2023-02-22T19:11:10.711Z,9.21
2023-02-22T19:13:37.356Z,8.96
2023-02-22T19:16:06.432Z,8.94
2023-02-22T19:18:32.527Z,8.96
2023-02-22T19:21:02.906Z,8.87
2023-02-22T19:23:34.250Z,8.82
2023-02-22T19:26:01.580Z,8.89
2023-02-22T19:28:33.150Z,8.84
2023-02-22T19:31:20.039Z,8.92
2023-02-22T19:33:50.501Z,9.01
2023-02-22T19:36:17.649Z,8.78
2023-02-22T19:38:43.712Z,8.80
2023-02-22T19:41:18.618Z,8.72
2023-02-22T19:43:46.677Z,8.71
2023-02-22T19:46:12.679Z,8.86
2023-02-22T19:48:39.187Z,8.89
2023-02-22T19:51:08.121Z,8.85
2023-02-22T19:53:35.135Z,8.81
2023-02-22T19:56:08.901Z,8.81
2023-02-22T19:58:38.995Z,9.03
2023-02-22T20:01:23.300Z,8.93
2023-02-22T20:03:55.577Z,8.92
2023-02-22T20:06:27.286Z,8.96
2023-02-22T20:08:54.727Z,8.89
2023-02-22T20:11:21.842Z,8.84
2023-02-22T20:13:48.082Z,8.88
2023-02-22T20:16:17.119Z,8.86
2023-02-22T20:18:44.667Z,8.91
2023-02-22T20:21:17.347Z,9.02
2023-02-22T20:23:43.635Z,8.94
2023-02-22T20:26:19.146Z,8.89
2023-02-22T20:28:45.649Z,8.85
2023-02-22T20:31:16.175Z,8.73
2023-02-22T20:33:44.994Z,8.68
2023-02-22T20:36:13.516Z,8.57
2023-02-22T20:38:39.428Z,8.55
2023-02-22T20:41:06.963Z,8.52
2023-02-22T20:43:33.844Z,8.53
2023-02-22T20:46:04.590Z,8.57
2023-02-22T20:48:30.837Z,8.51
2023-02-22T20:51:03.787Z,8.53
2023-02-22T20:53:29.885Z,8.56
2023-02-22T20:55:58.479Z,8.59
2023-02-22T20:58:25.128Z,8.65
2023-02-22T21:00:51.162Z,8.71
2023-02-22T21:03:17.082Z,8.63
2023-02-22T21:05:44.537Z,8.51
2023-02-22T21:08:12.169Z,8.48
2023-02-22T21:10:42.738Z,8.56
2023-02-22T21:13:11.505Z,8.60
2023-02-22T21:15:42.729Z,8.59
2023-02-22T21:18:10.583Z,8.49
2023-02-22T21:20:40.499Z,8.49
2023-02-22T21:23:07.518Z,8.49
2023-02-22T21:25:33.729Z,8.47
2023-02-22T21:27:59.654Z,8.44
2023-02-22T21:30:26.473Z,8.44
2023-02-22T21:32:54.136Z,8.44
2023-02-22T21:35:24.103Z,8.45
2023-02-22T21:37:54.508Z,8.40
2023-02-22T21:40:20.602Z,8.24
2023-02-22T21:42:48.315Z,8.25
2023-02-22T21:45:17.610Z,8.32
2023-02-22T21:47:47.920Z,8.29
2023-02-22T21:50:15.798Z,8.35
2023-02-22T21:52:46.335Z,8.35
2023-02-22T21:55:13.132Z,8.28
2023-02-22T21:57:42.228Z,8.30
2023-02-22T22:00:16.419Z,8.29
2023-02-22T22:02:47.276Z,8.22
2023-02-22T22:05:25.698Z,8.23
2023-02-22T22:07:51.507Z,8.33
2023-02-22T22:10:23.770Z,8.37
2023-02-22T22:12:49.804Z,8.39
2023-02-22T22:15:16.125Z,8.42
2023-02-22T22:17:42.978Z,8.32
2023-02-22T22:20:10.842Z,8.33
2023-02-22T22:22:38.355Z,8.37
2023-02-22T22:25:04.639Z,8.37
2023-02-22T22:27:30.455Z,8.34
2023-02-22T22:29:58.713Z,8.32
2023-02-22T22:32:24.546Z,8.32
2023-02-22T22:34:50.589Z,8.26
2023-02-22T22:37:16.498Z,8.24
2023-02-22T22:39:42.384Z,8.22
2023-02-22T22:42:08.716Z,8.12
2023-02-22T22:44:41.238Z,8.08
2023-02-22T22:47:11.476Z,8.09
2023-02-22T22:49:41.746Z,8.06
2023-02-22T22:52:08.207Z,8.05
2023-02-22T22:54:35.004Z,8.04
2023-02-22T22:57:00.908Z,8.07
2023-02-22T22:59:27.122Z,7.97
2023-02-22T23:01:55.816Z,8.07
2023-02-22T23:04:24.701Z,8.09
2023-02-22T23:06:52.713Z,8.01
2023-02-22T23:09:34.039Z,7.89
2023-02-22T23:12:07.872Z,7.84
2023-02-22T23:14:38.758Z,7.90
2023-02-22T23:17:13.528Z,7.80
2023-02-22T23:19:40.196Z,7.95
2023-02-22T23:22:06.787Z,7.82
2023-02-22T23:24:35.403Z,7.84
2023-02-22T23:27:06.134Z,7.89
2023-02-22T23:29:35.752Z,7.86
2023-02-22T23:32:01.924Z,7.79
2023-02-22T23:34:28.169Z,7.83
2023-02-22T23:36:54.525Z,7.89
2023-02-22T23:39:22.296Z,7.79
2023-02-22T23:41:58.411Z,7.78
2023-02-22T23:44:26.324Z,7.86
2023-02-22T23:46:54.499Z,7.86
2023-02-22T23:49:26.230Z,7.82
2023-02-22T23:51:52.843Z,7.69
2023-02-22T23:54:20.258Z,7.68
2023-02-22T23:56:55.437Z,7.58
2023-02-22T23:59:23.120Z,7.77
